Coconut Grove, Florida
Current Conditions -  °F | °C
As of 2:53 PM on Tuesday 21 Oct 2014 (Local Time) from KMIA Reporting Station
Light Rain Light Rain  
Wind Chill: 77°   Ceiling: 11000
Heat Index: 78°   Visibility: 10mi
Dew Point: 73°   Wind: 12mph
Humidity: 88%   Direction: 220°SW
Pressure: 29.94"   Gusts: NA
Location:  25.7533°N, 80.2707°W
Report Text: KMIA 211853Z 22010KT 10SM -RA SCT016 SCT040 BKN110 OVC250 25/23 A2994 RMK AO2 SLP137 P0001 T02500228
Loading
Personal Weather Stations






























Interactive Weather Map
Tropical Storm Tracking
New forecast layout! Learn more

10-Day Weather Forecast

Advertisements
Track Severe Weather on mobile